createdAt,value
2018-05-11T00:00:20.497Z,8.38
2018-05-11T00:02:48.898Z,8.27
2018-05-11T00:05:16.514Z,8.68
2018-05-11T00:07:44.144Z,7.83
2018-05-11T00:10:11.767Z,8.02
2018-05-11T00:12:39.441Z,8.37
2018-05-11T00:15:07.824Z,9.50
2018-05-11T00:17:36.225Z,8.95
2018-05-11T00:20:04.610Z,8.83
2018-05-11T00:22:32.311Z,9.10
2018-05-11T00:24:59.921Z,8.32
2018-05-11T00:27:27.580Z,8.80
2018-05-11T00:29:55.208Z,9.05
2018-05-11T00:32:22.849Z,10.35
2018-05-11T00:34:50.454Z,9.00
2018-05-11T00:37:18.048Z,8.38
2018-05-11T00:39:45.702Z,7.57
2018-05-11T00:42:13.334Z,9.25
2018-05-11T00:44:40.964Z,8.80
2018-05-11T00:47:09.338Z,8.43
2018-05-11T00:49:37.757Z,7.97
2018-05-11T00:52:05.336Z,7.12
2018-05-11T00:54:32.959Z,8.45
2018-05-11T00:57:00.557Z,7.65
2018-05-11T00:59:28.207Z,8.90
2018-05-11T01:01:55.808Z,8.30
2018-05-11T01:04:23.428Z,8.32
2018-05-11T01:06:51.797Z,7.95
2018-05-11T01:09:20.200Z,7.50
2018-05-11T01:11:48.647Z,8.43
2018-05-11T01:14:16.259Z,8.02
2018-05-11T01:16:43.918Z,8.35
2018-05-11T01:19:12.337Z,7.70
2018-05-11T01:21:39.964Z,7.33
2018-05-11T01:24:08.375Z,8.25
2018-05-11T01:26:35.975Z,8.43
2018-05-11T01:29:03.629Z,6.03
2018-05-11T01:31:31.223Z,7.12
2018-05-11T01:33:58.856Z,6.50
2018-05-11T01:36:26.495Z,7.12
2018-05-11T01:38:54.138Z,7.12
2018-05-11T01:41:21.727Z,6.40
2018-05-11T01:43:49.899Z,7.22
2018-05-11T01:46:17.559Z,6.57
2018-05-11T01:48:45.267Z,6.32
2018-05-11T01:51:14.367Z,7.43
2018-05-11T01:53:41.956Z,6.87
2018-05-11T01:56:09.596Z,6.70
2018-05-11T01:58:37.184Z,6.00
2018-05-11T02:01:04.879Z,6.70
2018-05-11T02:03:32.485Z,6.93
2018-05-11T02:06:00.136Z,6.53
2018-05-11T02:08:27.765Z,7.65
2018-05-11T02:10:55.403Z,8.27
2018-05-11T02:13:23.000Z,6.90
2018-05-11T02:15:50.592Z,6.82
2018-05-11T02:18:18.992Z,6.72
2018-05-11T02:20:46.604Z,8.52
2018-05-11T02:23:14.242Z,8.63
2018-05-11T02:25:41.863Z,7.87
2018-05-11T02:28:10.458Z,7.72
2018-05-11T02:30:38.819Z,6.70
2018-05-11T02:33:06.468Z,8.60
2018-05-11T02:35:35.136Z,7.78
2018-05-11T02:38:02.809Z,8.38
2018-05-11T02:40:30.420Z,8.48
2018-05-11T02:42:58.856Z,8.90
2018-05-11T02:45:26.464Z,7.97
2018-05-11T02:47:54.113Z,8.52
2018-05-11T02:50:21.701Z,7.45
2018-05-11T02:52:49.342Z,8.30
2018-05-11T02:55:16.976Z,8.27
2018-05-11T02:57:44.592Z,8.77
2018-05-11T03:00:12.254Z,8.48
2018-05-11T03:02:39.876Z,7.05
2018-05-11T03:05:07.525Z,7.50
2018-05-11T03:07:35.916Z,9.32
2018-05-11T03:10:03.612Z,7.07
2018-05-11T03:12:31.237Z,7.37
2018-05-11T03:14:58.838Z,7.53
2018-05-11T03:17:26.474Z,6.97
2018-05-11T03:19:54.131Z,7.13
2018-05-11T03:22:21.772Z,9.18
2018-05-11T03:24:49.419Z,7.82
2018-05-11T03:27:17.050Z,8.82
2018-05-11T03:29:44.658Z,8.05
2018-05-11T03:32:12.261Z,9.80
2018-05-11T03:34:39.884Z,8.35
2018-05-11T03:37:07.486Z,8.40
2018-05-11T03:39:35.878Z,9.00
2018-05-11T03:42:03.540Z,7.95
2018-05-11T03:44:32.487Z,7.50
2018-05-11T03:47:00.133Z,7.33
2018-05-11T03:49:27.743Z,6.82
2018-05-11T03:51:55.399Z,7.25
2018-05-11T03:54:23.005Z,6.20
2018-05-11T03:56:51.395Z,7.03
2018-05-11T03:59:19.780Z,6.57
2018-05-11T04:01:59.335Z,7.30
2018-05-11T04:04:38.943Z,7.55
2018-05-11T04:07:19.130Z,8.23
2018-05-11T04:09:46.769Z,7.35
2018-05-11T04:12:15.151Z,8.48
2018-05-11T04:14:43.564Z,6.00
2018-05-11T04:17:11.150Z,7.50
2018-05-11T04:19:38.821Z,8.95
2018-05-11T04:22:06.476Z,8.00
2018-05-11T04:24:34.070Z,6.50
2018-05-11T04:27:01.695Z,6.67
2018-05-11T04:29:29.322Z,8.32
2018-05-11T04:31:56.959Z,7.12
2018-05-11T04:34:24.572Z,6.97
2018-05-11T04:36:52.222Z,6.40
2018-05-11T04:39:19.820Z,7.20
2018-05-11T04:41:47.457Z,6.78
2018-05-11T04:44:15.103Z,6.37
2018-05-11T04:46:42.729Z,8.02
2018-05-11T04:49:10.336Z,7.57
2018-05-11T04:51:37.963Z,8.98
2018-05-11T04:54:05.594Z,6.63
2018-05-11T04:56:33.990Z,7.47
2018-05-11T04:59:01.620Z,7.90
2018-05-11T05:01:29.223Z,8.38
2018-05-11T05:03:57.570Z,8.20
2018-05-11T05:06:25.258Z,7.00
2018-05-11T05:08:52.895Z,6.75
2018-05-11T05:11:20.537Z,7.65
2018-05-11T05:13:48.166Z,7.90
2018-05-11T05:16:16.543Z,7.35
2018-05-11T05:18:44.976Z,7.45
2018-05-11T05:21:12.586Z,9.37
2018-05-11T05:23:40.946Z,6.57
2018-05-11T05:26:08.585Z,6.35
2018-05-11T05:28:36.240Z,8.75
2018-05-11T05:31:04.442Z,7.45
2018-05-11T05:33:32.081Z,6.03
2018-05-11T05:35:59.704Z,7.22
2018-05-11T05:38:27.302Z,7.28
2018-05-11T05:40:54.949Z,6.87
2018-05-11T05:43:23.308Z,7.68
2018-05-11T05:45:50.936Z,6.18
2018-05-11T05:48:18.620Z,8.27
2018-05-11T05:50:46.257Z,7.20
2018-05-11T05:53:13.893Z,6.70
2018-05-11T05:55:42.281Z,7.05
2018-05-11T05:58:09.918Z,5.93
2018-05-11T06:00:37.838Z,7.18
2018-05-11T06:03:06.193Z,7.22
2018-05-11T06:05:33.829Z,7.03
2018-05-11T06:08:01.442Z,7.28
2018-05-11T06:10:29.848Z,6.68
2018-05-11T06:12:57.458Z,6.70
2018-05-11T06:15:25.105Z,7.45
2018-05-11T06:17:52.749Z,7.40
2018-05-11T06:20:20.363Z,6.37
2018-05-11T06:22:48.013Z,8.02
2018-05-11T06:25:15.610Z,6.35
2018-05-11T06:27:43.227Z,6.53
2018-05-11T06:30:10.849Z,6.93
2018-05-11T06:32:38.546Z,6.32
2018-05-11T06:35:06.204Z,7.13
2018-05-11T06:37:33.805Z,7.07
2018-05-11T06:40:01.396Z,6.57
2018-05-11T06:42:29.823Z,5.32
2018-05-11T06:44:57.450Z,5.47
2018-05-11T06:47:25.108Z,5.85
2018-05-11T06:49:52.716Z,5.60
2018-05-11T06:52:20.340Z,5.95
2018-05-11T06:54:47.967Z,7.47
2018-05-11T06:57:15.915Z,4.87
2018-05-11T06:59:44.295Z,5.68
2018-05-11T07:02:12.693Z,6.55
2018-05-11T07:04:40.664Z,5.90
2018-05-11T07:07:09.052Z,4.93
2018-05-11T07:09:36.689Z,7.07
2018-05-11T07:12:04.402Z,5.47
2018-05-11T07:14:32.036Z,5.25
2018-05-11T07:17:00.392Z,6.37
2018-05-11T07:19:28.038Z,6.47
2018-05-11T07:21:55.637Z,6.60
2018-05-11T07:24:23.260Z,5.73
2018-05-11T07:26:50.871Z,6.65
2018-05-11T07:29:19.289Z,5.20
2018-05-11T07:31:46.887Z,6.40
2018-05-11T07:34:14.491Z,4.55
2018-05-11T07:36:42.140Z,5.53
2018-05-11T07:39:09.792Z,5.50
2018-05-11T07:41:37.420Z,6.62
2018-05-11T07:44:05.037Z,6.07
2018-05-11T07:46:32.634Z,6.97
2018-05-11T07:49:01.016Z,5.63
2018-05-11T07:51:29.412Z,7.80
2018-05-11T07:53:57.042Z,5.82
2018-05-11T07:56:24.704Z,5.72
2018-05-11T07:58:52.362Z,7.35
2018-05-11T08:01:19.963Z,6.32
2018-05-11T08:03:48.359Z,5.47
2018-05-11T08:06:16.021Z,5.12
2018-05-11T08:08:44.388Z,7.50
2018-05-11T08:11:12.028Z,5.75
2018-05-11T08:13:39.676Z,7.18
2018-05-11T08:16:07.296Z,6.65
2018-05-11T08:18:35.678Z,5.37
2018-05-11T08:21:03.390Z,5.87
2018-05-11T08:23:31.672Z,6.50
2018-05-11T08:25:59.370Z,5.20
2018-05-11T08:28:26.986Z,6.25
2018-05-11T08:30:54.623Z,7.57
2018-05-11T08:33:22.333Z,7.40
2018-05-11T08:35:49.991Z,5.77
2018-05-11T08:38:18.360Z,7.25
2018-05-11T08:40:46.021Z,6.95
2018-05-11T08:43:14.801Z,6.25
2018-05-11T08:45:42.411Z,6.40
2018-05-11T08:48:10.133Z,5.10
2018-05-11T08:50:37.745Z,6.07
2018-05-11T08:53:05.388Z,4.78
2018-05-11T08:55:33.097Z,5.90
2018-05-11T08:58:00.720Z,5.55
2018-05-11T09:00:29.121Z,5.43
2018-05-11T09:02:56.730Z,5.75
2018-05-11T09:05:24.398Z,3.92
2018-05-11T09:07:52.029Z,4.62
2018-05-11T09:10:19.657Z,4.85
2018-05-11T09:12:48.051Z,5.68
2018-05-11T09:15:15.690Z,4.82
2018-05-11T09:17:43.667Z,4.70
2018-05-11T09:20:11.279Z,5.03
2018-05-11T09:22:38.912Z,5.47
2018-05-11T09:25:07.351Z,5.07
2018-05-11T09:27:34.964Z,5.00
2018-05-11T09:30:02.555Z,3.37
2018-05-11T09:32:30.221Z,4.95
2018-05-11T09:34:58.892Z,5.70
2018-05-11T09:37:27.256Z,5.00
2018-05-11T09:39:54.884Z,5.22
2018-05-11T09:42:22.539Z,4.10
2018-05-11T09:44:50.183Z,3.95
2018-05-11T09:47:18.554Z,4.25
2018-05-11T09:49:46.183Z,4.53
2018-05-11T09:52:13.829Z,3.90
2018-05-11T09:54:41.449Z,5.47
2018-05-11T09:57:09.052Z,4.35
2018-05-11T09:59:36.681Z,4.45
2018-05-11T10:02:04.287Z,3.30
2018-05-11T10:04:31.923Z,4.72
2018-05-11T10:07:00.343Z,4.10
2018-05-11T10:09:27.944Z,5.10
2018-05-11T10:11:55.579Z,4.80
2018-05-11T10:14:23.199Z,3.47
2018-05-11T10:16:51.548Z,5.00
2018-05-11T10:19:19.167Z,3.53
2018-05-11T10:21:46.827Z,4.25
2018-05-11T10:24:15.188Z,4.60
2018-05-11T10:26:43.589Z,4.23
2018-05-11T10:29:12.041Z,4.43
2018-05-11T10:31:39.646Z,5.45
2018-05-11T10:34:07.286Z,4.37
2018-05-11T10:36:34.881Z,4.37
2018-05-11T10:39:02.523Z,3.92
2018-05-11T10:41:30.919Z,4.47
2018-05-11T10:43:59.296Z,4.65
2018-05-11T10:46:27.648Z,3.87
2018-05-11T10:48:55.389Z,4.53
2018-05-11T10:51:22.940Z,4.10
2018-05-11T10:53:50.535Z,3.45
2018-05-11T10:56:18.452Z,3.50
2018-05-11T10:58:46.067Z,3.90
2018-05-11T11:01:13.729Z,3.35
2018-05-11T11:03:41.350Z,3.27
2018-05-11T11:06:08.995Z,4.03
2018-05-11T11:08:36.632Z,3.90
2018-05-11T11:11:04.843Z,4.97
2018-05-11T11:13:32.466Z,3.73
2018-05-11T11:16:00.060Z,4.05
2018-05-11T11:18:27.706Z,4.30
2018-05-11T11:20:55.376Z,4.27
2018-05-11T11:23:23.005Z,4.05
2018-05-11T11:25:51.459Z,5.20
2018-05-11T11:28:19.123Z,3.93
2018-05-11T11:30:46.922Z,4.60
2018-05-11T11:33:14.536Z,3.45
2018-05-11T11:35:42.189Z,2.83
2018-05-11T11:38:09.932Z,3.12
2018-05-11T11:40:37.568Z,2.90
2018-05-11T11:43:05.200Z,3.95
2018-05-11T11:45:33.086Z,3.45
2018-05-11T11:48:00.710Z,3.45
2018-05-11T11:50:28.345Z,4.80
2018-05-11T11:52:55.957Z,4.43
2018-05-11T11:55:23.551Z,4.95
2018-05-11T11:57:51.165Z,3.62
2018-05-11T12:00:19.571Z,3.10
2018-05-11T12:02:47.165Z,3.57
2018-05-11T12:05:14.772Z,4.10
2018-05-11T12:07:43.177Z,3.17
2018-05-11T12:10:10.782Z,4.10
2018-05-11T12:12:38.432Z,4.00
2018-05-11T12:15:06.067Z,3.37
2018-05-11T12:17:34.502Z,4.28
2018-05-11T12:20:02.097Z,4.78
2018-05-11T12:22:29.696Z,4.87
2018-05-11T12:24:57.339Z,3.60
2018-05-11T12:27:25.724Z,3.30
2018-05-11T12:29:54.100Z,3.93
2018-05-11T12:32:22.498Z,3.83
2018-05-11T12:34:50.919Z,3.65
2018-05-11T12:37:18.557Z,4.18
2018-05-11T12:39:46.162Z,4.25
2018-05-11T12:42:13.796Z,4.70
2018-05-11T12:44:41.441Z,3.25
2018-05-11T12:47:09.837Z,3.50
2018-05-11T12:49:37.821Z,3.25
2018-05-11T12:52:05.421Z,3.47
2018-05-11T12:54:33.004Z,3.73
2018-05-11T12:57:00.624Z,4.62
2018-05-11T12:59:28.247Z,3.97
2018-05-11T13:01:55.869Z,3.87
2018-05-11T13:04:23.512Z,5.28
2018-05-11T13:06:51.157Z,3.28
2018-05-11T13:09:18.769Z,3.83
2018-05-11T13:11:46.437Z,5.68
2018-05-11T13:14:14.023Z,4.80
2018-05-11T13:16:41.689Z,3.60
2018-05-11T13:19:09.313Z,4.18
2018-05-11T13:21:36.929Z,4.65
2018-05-11T13:24:04.639Z,4.57
2018-05-11T13:26:32.298Z,4.25
2018-05-11T13:29:00.718Z,3.90
2018-05-11T13:31:28.372Z,5.82
2018-05-11T13:33:56.030Z,4.20
2018-05-11T13:36:23.683Z,3.60
2018-05-11T13:38:52.103Z,3.90
2018-05-11T13:41:19.722Z,4.37
2018-05-11T13:43:48.126Z,4.63
2018-05-11T13:46:15.745Z,3.72
2018-05-11T13:48:43.412Z,3.92
2018-05-11T13:51:11.057Z,4.33
2018-05-11T13:53:38.663Z,3.40
2018-05-11T13:56:07.124Z,3.80
2018-05-11T13:58:34.708Z,3.20
2018-05-11T14:01:03.085Z,4.03
2018-05-11T14:03:31.507Z,3.75
2018-05-11T14:05:59.132Z,3.83
2018-05-11T14:08:27.956Z,4.00
2018-05-11T14:10:55.584Z,3.62
2018-05-11T14:13:24.002Z,4.03
2018-05-11T14:15:51.670Z,4.18
2018-05-11T14:18:19.263Z,3.20
2018-05-11T14:20:46.851Z,3.00
2018-05-11T14:23:14.676Z,3.80
2018-05-11T14:25:42.312Z,4.37
2018-05-11T14:28:10.675Z,4.37
2018-05-11T14:30:38.716Z,4.65
2018-05-11T14:33:06.338Z,3.65
2018-05-11T14:35:34.696Z,4.13
2018-05-11T14:38:02.320Z,3.40
2018-05-11T14:40:29.942Z,3.70
2018-05-11T14:42:57.627Z,5.37
2018-05-11T14:45:26.051Z,4.50
2018-05-11T14:47:53.661Z,4.28
2018-05-11T14:50:21.260Z,4.70
2018-05-11T14:52:48.883Z,4.90
2018-05-11T14:55:16.487Z,3.97
2018-05-11T14:57:44.137Z,3.78
2018-05-11T15:00:12.524Z,4.95
2018-05-11T15:02:41.207Z,4.72
2018-05-11T15:05:09.573Z,3.75
2018-05-11T15:07:37.211Z,4.00
2018-05-11T15:10:04.890Z,4.07
2018-05-11T15:12:33.218Z,3.60
2018-05-11T15:15:01.682Z,4.18
2018-05-11T15:17:29.358Z,4.53
2018-05-11T15:19:56.982Z,4.22
2018-05-11T15:22:24.628Z,5.30
2018-05-11T15:24:52.248Z,6.30
2018-05-11T15:27:20.653Z,3.60
2018-05-11T15:29:49.247Z,3.78
2018-05-11T15:32:17.674Z,4.07
2018-05-11T15:34:45.407Z,3.53
2018-05-11T15:37:13.048Z,4.60
2018-05-11T15:39:41.479Z,5.63
2018-05-11T15:42:09.122Z,3.42
2018-05-11T15:44:36.728Z,4.70
2018-05-11T15:47:04.353Z,4.20
2018-05-11T15:49:31.991Z,4.37
2018-05-11T15:52:00.355Z,3.55
2018-05-11T15:54:28.045Z,4.33
2018-05-11T15:56:56.491Z,4.40
2018-05-11T15:59:24.251Z,3.95
2018-05-11T16:01:51.931Z,5.40
2018-05-11T16:04:19.653Z,4.25
2018-05-11T16:06:47.523Z,4.50
2018-05-11T16:09:15.134Z,3.87
2018-05-11T16:11:42.816Z,4.40
2018-05-11T16:14:10.695Z,3.70
2018-05-11T16:16:38.346Z,4.03
2018-05-11T16:19:06.001Z,4.65
2018-05-11T16:21:35.289Z,3.58
2018-05-11T16:24:02.927Z,3.70
2018-05-11T16:26:31.332Z,3.00
2018-05-11T16:28:58.962Z,3.12
2018-05-11T16:31:26.570Z,4.33
2018-05-11T16:33:54.193Z,3.30
2018-05-11T16:36:21.818Z,4.10
2018-05-11T16:38:49.453Z,3.08
2018-05-11T16:41:17.838Z,3.47
2018-05-11T16:43:46.231Z,3.95
2018-05-11T16:46:13.892Z,3.03
2018-05-11T16:48:41.573Z,3.28
2018-05-11T16:51:09.348Z,3.03
2018-05-11T16:53:36.820Z,3.80
2018-05-11T16:56:04.439Z,4.18
2018-05-11T16:58:32.793Z,3.53
2018-05-11T17:01:00.591Z,3.37
2018-05-11T17:03:29.047Z,3.27
2018-05-11T17:05:56.726Z,3.00
2018-05-11T17:08:24.394Z,4.55
2018-05-11T17:10:51.991Z,3.25
2018-05-11T17:13:19.636Z,3.78
2018-05-11T17:15:47.239Z,3.50
2018-05-11T17:18:14.911Z,3.60
2018-05-11T17:20:42.559Z,3.60
2018-05-11T17:23:12.104Z,3.00
2018-05-11T17:25:39.710Z,3.22
2018-05-11T17:28:07.363Z,3.03
2018-05-11T17:30:34.979Z,3.65
2018-05-11T17:33:02.636Z,3.70
2018-05-11T17:35:31.044Z,3.33
2018-05-11T17:37:58.729Z,3.25
2018-05-11T17:40:26.364Z,3.67
2018-05-11T17:42:53.996Z,3.00
2018-05-11T17:45:22.433Z,4.47
2018-05-11T17:47:50.103Z,3.25
2018-05-11T17:50:17.870Z,3.30
2018-05-11T17:52:45.488Z,3.72
2018-05-11T17:55:14.236Z,3.63
2018-05-11T17:57:41.826Z,3.83
2018-05-11T18:00:09.515Z,3.67
2018-05-11T18:02:37.178Z,7.75
2018-05-11T18:05:04.812Z,9.13
2018-05-11T18:07:32.441Z,8.52
2018-05-11T18:10:00.151Z,10.07
2018-05-11T18:12:27.886Z,6.72
2018-05-11T18:14:55.479Z,6.20
2018-05-11T18:17:23.080Z,4.28
2018-05-11T18:19:51.481Z,4.17
2018-05-11T18:22:19.160Z,5.10
2018-05-11T18:24:46.838Z,3.50
2018-05-11T18:27:14.476Z,4.22
2018-05-11T18:29:42.832Z,3.72
2018-05-11T18:32:10.467Z,3.63
2018-05-11T18:34:38.093Z,4.05
2018-05-11T18:37:06.648Z,3.72
2018-05-11T18:39:35.248Z,4.05
2018-05-11T18:42:02.872Z,4.07
2018-05-11T18:44:30.588Z,4.97
2018-05-11T18:46:58.249Z,4.53
2018-05-11T18:49:25.880Z,4.65
2018-05-11T18:51:53.552Z,4.40
2018-05-11T18:54:21.344Z,5.45
2018-05-11T18:56:48.825Z,5.12
2018-05-11T18:59:16.466Z,4.75
2018-05-11T19:01:44.112Z,4.15
2018-05-11T19:04:11.729Z,4.07
2018-05-11T19:06:39.356Z,4.90
2018-05-11T19:09:07.060Z,4.20
2018-05-11T19:11:34.640Z,4.10
2018-05-11T19:14:02.243Z,4.40
2018-05-11T19:16:29.858Z,4.07
2018-05-11T19:18:57.477Z,4.03
2018-05-11T19:21:25.116Z,4.03
2018-05-11T19:23:52.747Z,4.37
2018-05-11T19:26:20.379Z,3.47
2018-05-11T19:28:48.469Z,4.03
2018-05-11T19:31:16.073Z,3.95
2018-05-11T19:33:43.675Z,4.65
2018-05-11T19:36:12.106Z,4.25
2018-05-11T19:38:39.723Z,4.40
2018-05-11T19:41:08.143Z,4.68
2018-05-11T19:43:35.766Z,3.85
2018-05-11T19:46:04.149Z,4.53
2018-05-11T19:48:32.549Z,4.50
2018-05-11T19:51:00.532Z,5.32
2018-05-11T19:53:28.148Z,4.12
2018-05-11T19:55:55.745Z,4.53
2018-05-11T19:58:23.389Z,4.78
2018-05-11T20:00:51.058Z,4.27
2018-05-11T20:03:19.038Z,4.40
2018-05-11T20:05:46.682Z,4.65
2018-05-11T20:08:14.334Z,5.50
2018-05-11T20:10:41.948Z,5.53
2018-05-11T20:13:09.608Z,5.10
2018-05-11T20:15:38.012Z,4.90
2018-05-11T20:18:05.953Z,5.85
2018-05-11T20:20:33.598Z,5.37
2018-05-11T20:23:01.210Z,4.65
2018-05-11T20:25:28.877Z,5.05
2018-05-11T20:27:57.252Z,4.53
2018-05-11T20:30:25.617Z,5.10
2018-05-11T20:32:53.243Z,4.65
2018-05-11T20:35:20.884Z,5.50
2018-05-11T20:37:48.507Z,4.72
2018-05-11T20:40:16.100Z,5.90
2018-05-11T20:42:44.502Z,5.30
2018-05-11T20:45:12.144Z,4.50
2018-05-11T20:47:40.584Z,6.43
2018-05-11T20:50:08.224Z,4.82
2018-05-11T20:52:35.876Z,5.25
2018-05-11T20:55:04.256Z,5.47
2018-05-11T20:57:32.609Z,5.80
2018-05-11T21:00:00.202Z,5.95
2018-05-11T21:02:28.589Z,5.40
2018-05-11T21:04:56.979Z,5.10
2018-05-11T21:07:24.616Z,5.05
2018-05-11T21:09:52.248Z,4.83
2018-05-11T21:12:19.870Z,5.62
2018-05-11T21:14:48.447Z,5.60
2018-05-11T21:17:15.947Z,4.95
2018-05-11T21:19:43.536Z,5.55
2018-05-11T21:22:11.158Z,5.82
2018-05-11T21:24:39.583Z,4.75
2018-05-11T21:27:07.201Z,5.97
2018-05-11T21:29:34.834Z,5.90
2018-05-11T21:32:02.460Z,6.60
2018-05-11T21:34:30.077Z,5.53
2018-05-11T21:36:57.714Z,5.65
2018-05-11T21:39:25.352Z,6.03
2018-05-11T21:41:52.995Z,5.55
2018-05-11T21:44:21.411Z,4.78
2018-05-11T21:46:49.040Z,6.45
2018-05-11T21:49:16.688Z,5.68
2018-05-11T21:51:44.344Z,5.47
2018-05-11T21:54:11.990Z,6.00
2018-05-11T21:56:39.593Z,5.65
2018-05-11T21:59:07.221Z,5.75
2018-05-11T22:01:34.816Z,5.43
2018-05-11T22:04:02.430Z,5.78
2018-05-11T22:06:30.074Z,6.00
2018-05-11T22:08:57.695Z,6.23
2018-05-11T22:11:25.315Z,5.30
2018-05-11T22:13:53.736Z,6.78
2018-05-11T22:16:21.335Z,6.35
2018-05-11T22:18:48.920Z,6.40
2018-05-11T22:21:17.328Z,6.62
2018-05-11T22:23:44.957Z,6.10
2018-05-11T22:26:12.589Z,7.30
2018-05-11T22:28:40.216Z,6.57
2018-05-11T22:31:08.591Z,6.60
2018-05-11T22:33:36.213Z,5.93
2018-05-11T22:36:03.827Z,6.70
2018-05-11T22:38:32.242Z,6.72
2018-05-11T22:40:59.850Z,6.12
2018-05-11T22:43:27.548Z,6.25
2018-05-11T22:45:55.933Z,5.82
2018-05-11T22:48:24.308Z,6.15
2018-05-11T22:50:52.707Z,5.78
2018-05-11T22:53:20.345Z,5.93
2018-05-11T22:55:47.938Z,6.45
2018-05-11T22:58:16.285Z,7.45
2018-05-11T23:00:43.897Z,6.12
2018-05-11T23:03:11.494Z,7.07
2018-05-11T23:05:39.122Z,6.35
2018-05-11T23:08:06.759Z,5.90
2018-05-11T23:10:34.359Z,5.68
2018-05-11T23:13:02.010Z,5.43
2018-05-11T23:15:30.366Z,5.85
2018-05-11T23:17:58.011Z,6.22
2018-05-11T23:20:25.651Z,5.22
2018-05-11T23:22:53.343Z,6.75
2018-05-11T23:25:21.667Z,8.27
2018-05-11T23:27:49.425Z,6.95
2018-05-11T23:30:17.032Z,7.00
2018-05-11T23:32:44.622Z,6.82
2018-05-11T23:35:12.298Z,6.82
2018-05-11T23:37:39.906Z,6.73
2018-05-11T23:40:08.278Z,8.65
2018-05-11T23:42:35.897Z,7.70
2018-05-11T23:45:03.496Z,7.03
2018-05-11T23:47:31.107Z,6.07
2018-05-11T23:49:59.499Z,6.37
2018-05-11T23:52:27.122Z,5.70
2018-05-11T23:54:54.780Z,6.10
2018-05-11T23:57:22.374Z,5.62
2018-05-11T23:59:50.783Z,5.85
